PWSweather.com
Personal Weather Stations
Station Observations
IMAZOWIE6
WarszawaPL

WarszawaPL

Lat: 52.27957, Lon: 21.05489

Elevation: 100

Station Type: WS1080

http://stacjapogody.waw.pl/

High Low Average
Temperature 55.8°F13.2°C 49.3°F9.6°C 52.2°F11.2°C
Dew Point 34.0°F1.1°C 6.1°F-14.4°C 16.0°F-8.9°C
Winds Calm Calm Calm Calm Calm NCalm N
Wind Gusts 4.8 mph7.7 kmh -- --
Humidity 44% 15% 25%
Pressure 29.97 in1014.9 mb 29.79 in1008.8 mb -
Precipitation 0.00 in0.0 mm - -
Hour Temp Dew Point Humidity Winds Wind Gusts Pressure Precip Precip Rate Daily Precip Total
12:05 AM 49.6°F9.8°C 10.0°F-12.2°C 20% Calm Calm -- 29.97 in1014.9 mb 0.00 in0.0 mm 0.00 in0.0 mm 0.00 in0.0 mm
12:20 AM 49.3°F9.6°C 9.7°F-12.4°C 20% Calm Calm -- 29.97 in1014.9 mb 0.00 in0.0 mm 0.00 in0.0 mm 0.00 in0.0 mm
12:35 AM 49.5°F9.7°C 9.9°F-12.3°C 20% Calm Calm -- 29.97 in1014.9 mb 0.00 in0.0 mm 0.00 in0.0 mm 0.00 in0.0 mm
12:50 AM 49.3°F9.6°C 9.7°F-12.4°C 20% Calm Calm -- 29.97 in1014.9 mb 0.00 in0.0 mm 0.00 in0.0 mm 0.00 in0.0 mm
01:05 AM 49.5°F9.7°C 9.9°F-12.3°C 20% Calm Calm -- 29.97 in1014.9 mb 0.00 in0.0 mm 0.00 in0.0 mm 0.00 in0.0 mm
01:20 AM 49.3°F9.6°C 9.7°F-12.4°C 20% Calm Calm -- 29.96 in1014.6 mb 0.00 in0.0 mm 0.00 in0.0 mm 0.00 in0.0 mm
01:35 AM 49.5°F9.7°C 9.9°F-12.3°C 20% Calm Calm -- 29.96 in1014.6 mb 0.00 in0.0 mm 0.00 in0.0 mm 0.00 in0.0 mm
01:50 AM 49.5°F9.7°C 9.9°F-12.3°C 20% Calm Calm -- 29.96 in1014.6 mb 0.00 in0.0 mm 0.00 in0.0 mm 0.00 in0.0 mm
02:05 AM 49.5°F9.7°C 9.9°F-12.3°C 20% Calm Calm -- 29.96 in1014.6 mb 0.00 in0.0 mm 0.00 in0.0 mm 0.00 in0.0 mm
02:16 AM 49.5°F9.7°C 9.9°F-12.3°C 20% Calm Calm -- 29.96 in1014.6 mb 0.00 in0.0 mm 0.00 in0.0 mm 0.00 in0.0 mm
02:32 AM 49.5°F9.7°C 9.9°F-12.3°C 20% Calm Calm -- 29.95 in1014.2 mb 0.00 in0.0 mm 0.00 in0.0 mm 0.00 in0.0 mm
02:48 AM 49.5°F9.7°C 9.9°F-12.3°C 20% Calm Calm -- 29.95 in1014.2 mb 0.00 in0.0 mm 0.00 in0.0 mm 0.00 in0.0 mm
03:04 AM 49.5°F9.7°C 9.9°F-12.3°C 20% Calm Calm -- 29.95 in1014.2 mb 0.00 in0.0 mm 0.00 in0.0 mm 0.00 in0.0 mm
03:20 AM 49.6°F9.8°C 10.0°F-12.2°C 20% Calm Calm -- 29.95 in1014.2 mb 0.00 in0.0 mm 0.00 in0.0 mm 0.00 in0.0 mm
03:31 AM 49.5°F9.7°C 9.9°F-12.3°C 20% Calm Calm -- 29.94 in1013.9 mb 0.00 in0.0 mm 0.00 in0.0 mm 0.00 in0.0 mm
03:47 AM 49.6°F9.8°C 8.9°F-12.8°C 19% Calm Calm -- 29.94 in1013.9 mb 0.00 in0.0 mm 0.00 in0.0 mm 0.00 in0.0 mm
04:03 AM 49.5°F9.7°C 8.7°F-12.9°C 19% Calm Calm -- 29.94 in1013.9 mb 0.00 in0.0 mm 0.00 in0.0 mm 0.00 in0.0 mm
04:19 AM 49.5°F9.7°C 8.7°F-12.9°C 19% Calm Calm -- 29.94 in1013.9 mb 0.00 in0.0 mm 0.00 in0.0 mm 0.00 in0.0 mm
04:35 AM 49.5°F9.7°C 8.7°F-12.9°C 19% Calm Calm -- 29.94 in1013.9 mb 0.00 in0.0 mm 0.00 in0.0 mm 0.00 in0.0 mm
04:51 AM 49.8°F9.9°C 9.0°F-12.8°C 19% Calm Calm -- 29.93 in1013.5 mb 0.00 in0.0 mm 0.00 in0.0 mm 0.00 in0.0 mm
05:01 AM 49.6°F9.8°C 8.9°F-12.8°C 19% Calm Calm -- 29.94 in1013.9 mb 0.00 in0.0 mm 0.00 in0.0 mm 0.00 in0.0 mm
05:17 AM 49.5°F9.7°C 8.7°F-12.9°C 19% Calm Calm -- 29.93 in1013.5 mb 0.00 in0.0 mm 0.00 in0.0 mm 0.00 in0.0 mm
05:33 AM 49.6°F9.8°C 8.9°F-12.8°C 19% Calm Calm -- 29.93 in1013.5 mb 0.00 in0.0 mm 0.00 in0.0 mm 0.00 in0.0 mm
05:49 AM 49.8°F9.9°C 9.0°F-12.8°C 19% Calm Calm -- 29.93 in1013.5 mb 0.00 in0.0 mm 0.00 in0.0 mm 0.00 in0.0 mm
06:05 AM 49.5°F9.7°C 8.7°F-12.9°C 19% Calm Calm -- 29.93 in1013.5 mb 0.00 in0.0 mm 0.00 in0.0 mm 0.00 in0.0 mm
06:16 AM 49.5°F9.7°C 8.7°F-12.9°C 19% Calm Calm -- 29.93 in1013.5 mb 0.00 in0.0 mm 0.00 in0.0 mm 0.00 in0.0 mm
06:32 AM 49.8°F9.9°C 9.0°F-12.8°C 19% Calm Calm -- 29.93 in1013.5 mb 0.00 in0.0 mm 0.00 in0.0 mm 0.00 in0.0 mm
06:48 AM 49.8°F9.9°C 9.0°F-12.8°C 19% Calm Calm -- 29.93 in1013.5 mb 0.00 in0.0 mm 0.00 in0.0 mm 0.00 in0.0 mm
07:04 AM 49.8°F9.9°C 9.0°F-12.8°C 19% Calm Calm -- 29.93 in1013.5 mb 0.00 in0.0 mm 0.00 in0.0 mm 0.00 in0.0 mm
07:20 AM 49.8°F9.9°C 9.0°F-12.8°C 19% Calm Calm -- 29.94 in1013.9 mb 0.00 in0.0 mm 0.00 in0.0 mm 0.00 in0.0 mm
07:31 AM 50.0°F10.0°C 9.2°F-12.7°C 19% Calm Calm -- 29.94 in1013.9 mb 0.00 in0.0 mm 0.00 in0.0 mm 0.00 in0.0 mm
07:47 AM 50.0°F10.0°C 9.2°F-12.7°C 19% Calm Calm -- 29.93 in1013.5 mb 0.00 in0.0 mm 0.00 in0.0 mm 0.00 in0.0 mm
08:03 AM 50.4°F10.2°C 9.5°F-12.5°C 19% Calm Calm -- 29.93 in1013.5 mb 0.00 in0.0 mm 0.00 in0.0 mm 0.00 in0.0 mm
08:19 AM 50.5°F10.3°C 9.6°F-12.4°C 19% Calm Calm -- 29.92 in1013.2 mb 0.00 in0.0 mm 0.00 in0.0 mm 0.00 in0.0 mm
08:35 AM 50.7°F10.4°C 9.8°F-12.3°C 19% Calm Calm -- 29.93 in1013.5 mb 0.00 in0.0 mm 0.00 in0.0 mm 0.00 in0.0 mm
08:51 AM 51.1°F10.6°C 10.1°F-12.2°C 19% Calm Calm -- 29.92 in1013.2 mb 0.00 in0.0 mm 0.00 in0.0 mm 0.00 in0.0 mm
09:01 AM 51.1°F10.6°C 10.1°F-12.2°C 19% Calm Calm -- 29.92 in1013.2 mb 0.00 in0.0 mm 0.00 in0.0 mm 0.00 in0.0 mm
09:17 AM 51.1°F10.6°C 10.1°F-12.2°C 19% Calm Calm -- 29.92 in1013.2 mb 0.00 in0.0 mm 0.00 in0.0 mm 0.00 in0.0 mm
09:33 AM 51.4°F10.8°C 10.4°F-12.0°C 19% Calm Calm 0.6 mph1.0 kmh 29.92 in1013.2 mb 0.00 in0.0 mm 0.00 in0.0 mm 0.00 in0.0 mm
09:49 AM 51.4°F10.8°C 9.2°F-12.7°C 18% Calm Calm 0.6 mph1.0 kmh 29.92 in1013.2 mb 0.00 in0.0 mm 0.00 in0.0 mm 0.00 in0.0 mm
10:05 AM 51.8°F11.0°C 9.5°F-12.5°C 18% Calm Calm -- 29.92 in1013.2 mb 0.00 in0.0 mm 0.00 in0.0 mm 0.00 in0.0 mm
10:20 AM 52.2°F11.2°C 8.5°F-13.1°C 17% Calm Calm 0.6 mph1.0 kmh 29.92 in1013.2 mb 0.00 in0.0 mm 0.00 in0.0 mm 0.00 in0.0 mm
10:35 AM 52.5°F11.4°C 8.8°F-12.9°C 17% Calm Calm -- 29.91 in1012.9 mb 0.00 in0.0 mm 0.00 in0.0 mm 0.00 in0.0 mm
10:50 AM 52.5°F11.4°C 7.5°F-13.6°C 16% Calm Calm -- 29.91 in1012.9 mb 0.00 in0.0 mm 0.00 in0.0 mm 0.00 in0.0 mm
11:05 AM 52.5°F11.4°C 6.1°F-14.4°C 15% Calm Calm 1.4 mph2.3 kmh 29.91 in1012.9 mb 0.00 in0.0 mm 0.00 in0.0 mm 0.00 in0.0 mm
11:20 AM 52.9°F11.6°C 6.4°F-14.2°C 15% Calm Calm -- 29.90 in1012.5 mb 0.00 in0.0 mm 0.00 in0.0 mm 0.00 in0.0 mm
11:35 AM 52.9°F11.6°C 6.4°F-14.2°C 15% Calm Calm -- 29.90 in1012.5 mb 0.00 in0.0 mm 0.00 in0.0 mm 0.00 in0.0 mm
11:50 AM 53.4°F11.9°C 6.8°F-14.0°C 15% Calm Calm -- 29.89 in1012.2 mb 0.00 in0.0 mm 0.00 in0.0 mm 0.00 in0.0 mm
12:05 PM 53.6°F12.0°C 6.9°F-13.9°C 15% Calm Calm 0.6 mph1.0 kmh 29.89 in1012.2 mb 0.00 in0.0 mm 0.00 in0.0 mm 0.00 in0.0 mm
12:20 PM 53.8°F12.1°C 7.1°F-13.8°C 15% Calm Calm -- 29.89 in1012.2 mb 0.00 in0.0 mm 0.00 in0.0 mm 0.00 in0.0 mm
12:35 PM 53.6°F12.0°C 6.9°F-13.9°C 15% Calm Calm -- 29.88 in1011.9 mb 0.00 in0.0 mm 0.00 in0.0 mm 0.00 in0.0 mm
12:50 PM 54.0°F12.2°C 7.2°F-13.8°C 15% Calm Calm -- 29.88 in1011.9 mb 0.00 in0.0 mm 0.00 in0.0 mm 0.00 in0.0 mm
01:05 PM 54.0°F12.2°C 7.2°F-13.8°C 15% Calm Calm -- 29.88 in1011.9 mb 0.00 in0.0 mm 0.00 in0.0 mm 0.00 in0.0 mm
01:20 PM 53.8°F12.1°C 7.1°F-13.8°C 15% Calm Calm -- 29.87 in1011.5 mb 0.00 in0.0 mm 0.00 in0.0 mm 0.00 in0.0 mm
05:35 PM 54.5°F12.5°C 22.7°F-5.2°C 29% Calm Calm -- 29.83 in1010.2 mb 0.00 in0.0 mm 0.00 in0.0 mm 0.00 in0.0 mm
05:50 PM 54.5°F12.5°C 25.0°F-3.9°C 32% Calm Calm -- 29.83 in1010.2 mb 0.00 in0.0 mm 0.00 in0.0 mm 0.00 in0.0 mm
06:05 PM 54.7°F12.6°C 26.7°F-2.9°C 34% Calm Calm 0.6 mph1.0 kmh 29.82 in1009.8 mb 0.00 in0.0 mm 0.00 in0.0 mm 0.00 in0.0 mm
06:20 PM 54.7°F12.6°C 27.4°F-2.6°C 35% Calm Calm -- 29.83 in1010.2 mb 0.00 in0.0 mm 0.00 in0.0 mm 0.00 in0.0 mm
06:35 PM 54.9°F12.7°C 28.9°F-1.7°C 37% Calm Calm -- 29.82 in1009.8 mb 0.00 in0.0 mm 0.00 in0.0 mm 0.00 in0.0 mm
06:50 PM 54.9°F12.7°C 29.5°F-1.4°C 38% Calm Calm -- 29.82 in1009.8 mb 0.00 in0.0 mm 0.00 in0.0 mm 0.00 in0.0 mm
07:05 PM 55.0°F12.8°C 31.0°F-0.6°C 40% Calm Calm -- 29.81 in1009.5 mb 0.00 in0.0 mm 0.00 in0.0 mm 0.00 in0.0 mm
07:20 PM 55.0°F12.8°C 31.6°F-0.2°C 41% Calm Calm 0.6 mph1.0 kmh 29.81 in1009.5 mb 0.00 in0.0 mm 0.00 in0.0 mm 0.00 in0.0 mm
07:35 PM 55.2°F12.9°C 32.4°F0.2°C 42% Calm Calm 0.6 mph1.0 kmh 29.82 in1009.8 mb 0.00 in0.0 mm 0.00 in0.0 mm 0.00 in0.0 mm
07:50 PM 55.4°F13.0°C 33.1°F0.6°C 43% Calm Calm 4.0 mph6.4 kmh 29.82 in1009.8 mb 0.00 in0.0 mm 0.00 in0.0 mm 0.00 in0.0 mm
08:05 PM 55.4°F13.0°C 33.7°F0.9°C 44% Calm Calm 4.8 mph7.7 kmh 29.81 in1009.5 mb 0.00 in0.0 mm 0.00 in0.0 mm 0.00 in0.0 mm
08:20 PM 55.4°F13.0°C 33.7°F0.9°C 44% Calm Calm 0.6 mph1.0 kmh 29.81 in1009.5 mb 0.00 in0.0 mm 0.00 in0.0 mm 0.00 in0.0 mm
08:35 PM 55.8°F13.2°C 34.0°F1.1°C 44% Calm Calm -- 29.81 in1009.5 mb 0.00 in0.0 mm 0.00 in0.0 mm 0.00 in0.0 mm
08:50 PM 55.6°F13.1°C 33.3°F0.7°C 43% Calm Calm -- 29.81 in1009.5 mb 0.00 in0.0 mm 0.00 in0.0 mm 0.00 in0.0 mm
09:05 PM 55.8°F13.2°C 33.4°F0.8°C 43% Calm Calm -- 29.81 in1009.5 mb 0.00 in0.0 mm 0.00 in0.0 mm 0.00 in0.0 mm
09:20 PM 55.8°F13.2°C 32.8°F0.4°C 42% Calm Calm 2.0 mph3.2 kmh 29.81 in1009.5 mb 0.00 in0.0 mm 0.00 in0.0 mm 0.00 in0.0 mm
09:35 PM 55.8°F13.2°C 32.8°F0.4°C 42% Calm Calm 2.8 mph4.5 kmh 29.81 in1009.5 mb 0.00 in0.0 mm 0.00 in0.0 mm 0.00 in0.0 mm
09:50 PM 55.6°F13.1°C 32.1°F0.1°C 41% Calm Calm -- 29.80 in1009.1 mb 0.00 in0.0 mm 0.00 in0.0 mm 0.00 in0.0 mm
10:05 PM 55.4°F13.0°C 31.9°F-0.1°C 41% Calm Calm -- 29.80 in1009.1 mb 0.00 in0.0 mm 0.00 in0.0 mm 0.00 in0.0 mm
10:20 PM 55.6°F13.1°C 32.1°F0.1°C 41% Calm Calm -- 29.80 in1009.1 mb 0.01 in0.3 mm 0.05 in1.3 mm 0.01 in0.3 mm
10:35 PM 55.4°F13.0°C 31.3°F-0.4°C 40% Calm Calm -- 29.80 in1009.1 mb 0.01 in0.3 mm 0.00 in0.0 mm 0.01 in0.3 mm
10:50 PM 55.8°F13.2°C 31.6°F-0.2°C 40% Calm Calm 0.6 mph1.0 kmh 29.80 in1009.1 mb 0.01 in0.3 mm 0.00 in0.0 mm 0.01 in0.3 mm
11:05 PM 55.4°F13.0°C 31.3°F-0.4°C 40% Calm Calm 0.6 mph1.0 kmh 29.80 in1009.1 mb 0.01 in0.3 mm 0.00 in0.0 mm 0.01 in0.3 mm
11:20 PM 55.4°F13.0°C 30.7°F-0.7°C 39% Calm Calm 0.6 mph1.0 kmh 29.80 in1009.1 mb 0.00 in0.0 mm 0.00 in0.0 mm 0.01 in0.3 mm
11:35 PM 55.4°F13.0°C 30.0°F-1.1°C 38% Calm Calm 0.6 mph1.0 kmh 29.80 in1009.1 mb 0.00 in0.0 mm 0.00 in0.0 mm 0.01 in0.3 mm
11:50 PM 55.2°F12.9°C 28.5°F-1.9°C 36% Calm Calm 0.6 mph1.0 kmh 29.79 in1008.8 mb 0.00 in0.0 mm 0.00 in0.0 mm 0.01 in0.3 mm